sensor_id;sensor_type;location;lat;lon;timestamp;noise_LAeq;noise_LA_min;noise_LA_max;noise_LA01;noise_LA95
41704;Laerm;861;48.808;9.006;2024-03-29T00:02:17;36.33;34.96;45.66;;
41704;Laerm;861;48.808;9.006;2024-03-29T00:04:43;36.29;34.96;37.66;;
41704;Laerm;861;48.808;9.006;2024-03-29T00:07:10;36.30;34.91;37.64;;
41704;Laerm;861;48.808;9.006;2024-03-29T00:09:36;36.37;34.93;42.98;;
41704;Laerm;861;48.808;9.006;2024-03-29T00:12:03;36.45;34.89;45.88;;
41704;Laerm;861;48.808;9.006;2024-03-29T00:14:31;36.35;34.75;39.26;;
41704;Laerm;861;48.808;9.006;2024-03-29T00:16:58;36.41;34.53;46.43;;
41704;Laerm;861;48.808;9.006;2024-03-29T00:19:24;36.35;35.02;38.22;;
41704;Laerm;861;48.808;9.006;2024-03-29T00:21:51;36.42;35.02;42.92;;
41704;Laerm;861;48.808;9.006;2024-03-29T00:24:17;36.38;35.16;39.09;;
41704;Laerm;861;48.808;9.006;2024-03-29T00:26:44;36.40;35.01;40.48;;
41704;Laerm;861;48.808;9.006;2024-03-29T00:29:10;37.88;35.08;54.41;;
41704;Laerm;861;48.808;9.006;2024-03-29T00:31:37;36.53;34.85;47.01;;
41704;Laerm;861;48.808;9.006;2024-03-29T00:34:04;36.51;35.01;47.53;;
41704;Laerm;861;48.808;9.006;2024-03-29T00:36:30;37.11;35.06;51.81;;
41704;Laerm;861;48.808;9.006;2024-03-29T00:38:57;36.59;35.13;46.16;;
41704;Laerm;861;48.808;9.006;2024-03-29T00:41:23;36.52;34.81;45.78;;
41704;Laerm;861;48.808;9.006;2024-03-29T00:43:50;36.39;34.78;37.92;;
41704;Laerm;861;48.808;9.006;2024-03-29T00:46:17;36.40;34.99;38.83;;
41704;Laerm;861;48.808;9.006;2024-03-29T00:48:44;36.39;35.08;38.83;;
41704;Laerm;861;48.808;9.006;2024-03-29T00:51:13;36.38;34.81;37.81;;
41704;Laerm;861;48.808;9.006;2024-03-29T00:53:40;36.37;35.05;37.57;;
41704;Laerm;861;48.808;9.006;2024-03-29T00:56:06;36.39;34.99;37.76;;
41704;Laerm;861;48.808;9.006;2024-03-29T00:58:33;36.40;34.92;38.11;;
41704;Laerm;861;48.808;9.006;2024-03-29T01:00:59;36.42;34.95;39.56;;
41704;Laerm;861;48.808;9.006;2024-03-29T01:03:26;36.45;34.85;37.69;;
41704;Laerm;861;48.808;9.006;2024-03-29T01:05:55;36.41;34.92;37.69;;
41704;Laerm;861;48.808;9.006;2024-03-29T01:08:21;36.41;34.98;37.90;;
41704;Laerm;861;48.808;9.006;2024-03-29T01:10:50;36.41;34.87;37.67;;
41704;Laerm;861;48.808;9.006;2024-03-29T01:13:16;36.40;34.93;37.96;;
41704;Laerm;861;48.808;9.006;2024-03-29T01:15:43;36.42;35.13;37.92;;
41704;Laerm;861;48.808;9.006;2024-03-29T01:18:09;36.42;34.77;37.72;;
41704;Laerm;861;48.808;9.006;2024-03-29T01:20:37;36.44;34.98;37.71;;
41704;Laerm;861;48.808;9.006;2024-03-29T01:23:03;36.43;35.15;38.00;;
41704;Laerm;861;48.808;9.006;2024-03-29T01:25:30;36.44;34.82;37.64;;
41704;Laerm;861;48.808;9.006;2024-03-29T01:27:57;36.45;35.12;37.75;;
41704;Laerm;861;48.808;9.006;2024-03-29T01:30:24;36.48;35.15;38.06;;
41704;Laerm;861;48.808;9.006;2024-03-29T01:32:50;36.48;34.89;38.12;;
41704;Laerm;861;48.808;9.006;2024-03-29T01:35:17;36.51;35.25;37.77;;
41704;Laerm;861;48.808;9.006;2024-03-29T01:37:43;36.54;35.20;37.88;;
41704;Laerm;861;48.808;9.006;2024-03-29T01:40:11;36.55;35.10;37.96;;
41704;Laerm;861;48.808;9.006;2024-03-29T01:42:38;36.58;35.29;37.82;;
41704;Laerm;861;48.808;9.006;2024-03-29T01:45:06;36.60;34.96;37.88;;
41704;Laerm;861;48.808;9.006;2024-03-29T01:47:35;36.62;35.23;37.83;;
41704;Laerm;861;48.808;9.006;2024-03-29T01:50:02;36.65;35.30;38.21;;
41704;Laerm;861;48.808;9.006;2024-03-29T01:52:30;36.69;35.39;38.15;;
41704;Laerm;861;48.808;9.006;2024-03-29T01:54:57;36.74;35.37;38.07;;
41704;Laerm;861;48.808;9.006;2024-03-29T01:57:25;36.77;35.49;38.00;;
41704;Laerm;861;48.808;9.006;2024-03-29T01:59:52;36.78;35.34;37.96;;
41704;Laerm;861;48.808;9.006;2024-03-29T02:02:19;36.80;35.46;38.15;;
41704;Laerm;861;48.808;9.006;2024-03-29T02:04:47;36.84;35.47;38.10;;
41704;Laerm;861;48.808;9.006;2024-03-29T02:07:14;36.85;35.58;38.13;;
41704;Laerm;861;48.808;9.006;2024-03-29T02:09:41;36.86;35.59;38.03;;
41704;Laerm;861;48.808;9.006;2024-03-29T02:12:08;36.88;35.62;38.15;;
41704;Laerm;861;48.808;9.006;2024-03-29T02:14:35;36.88;35.48;38.13;;
41704;Laerm;861;48.808;9.006;2024-03-29T02:17:01;36.88;35.53;38.41;;
41704;Laerm;861;48.808;9.006;2024-03-29T02:19:28;36.87;35.35;38.08;;
41704;Laerm;861;48.808;9.006;2024-03-29T02:22:01;36.87;35.60;38.10;;
41704;Laerm;861;48.808;9.006;2024-03-29T02:24:32;36.88;35.46;38.13;;
41704;Laerm;861;48.808;9.006;2024-03-29T02:26:59;36.90;35.49;38.24;;
41704;Laerm;861;48.808;9.006;2024-03-29T02:29:25;36.91;35.70;38.34;;
41704;Laerm;861;48.808;9.006;2024-03-29T02:31:52;36.91;35.53;38.25;;
41704;Laerm;861;48.808;9.006;2024-03-29T02:34:18;36.92;35.64;38.29;;
41704;Laerm;861;48.808;9.006;2024-03-29T02:36:45;36.93;35.67;38.18;;
41704;Laerm;861;48.808;9.006;2024-03-29T02:39:12;36.96;35.63;38.25;;
41704;Laerm;861;48.808;9.006;2024-03-29T02:41:38;36.93;35.61;38.45;;
41704;Laerm;861;48.808;9.006;2024-03-29T02:44:05;36.94;35.37;38.17;;
41704;Laerm;861;48.808;9.006;2024-03-29T02:46:32;36.94;35.35;38.30;;
41704;Laerm;861;48.808;9.006;2024-03-29T02:48:58;36.97;35.60;38.37;;
41704;Laerm;861;48.808;9.006;2024-03-29T02:51:25;36.94;35.54;38.13;;
41704;Laerm;861;48.808;9.006;2024-03-29T02:53:51;36.94;35.41;38.35;;
41704;Laerm;861;48.808;9.006;2024-03-29T02:56:18;36.94;35.54;38.18;;
41704;Laerm;861;48.808;9.006;2024-03-29T02:58:48;36.94;35.44;38.22;;
41704;Laerm;861;48.808;9.006;2024-03-29T03:01:14;36.93;35.63;38.12;;
41704;Laerm;861;48.808;9.006;2024-03-29T03:03:41;36.94;35.70;38.08;;
41704;Laerm;861;48.808;9.006;2024-03-29T03:06:07;36.92;35.47;38.12;;
41704;Laerm;861;48.808;9.006;2024-03-29T03:08:34;36.90;35.52;38.11;;
41704;Laerm;861;48.808;9.006;2024-03-29T03:11:19;36.91;35.62;38.12;;
41704;Laerm;861;48.808;9.006;2024-03-29T03:13:46;36.91;35.71;38.15;;
41704;Laerm;861;48.808;9.006;2024-03-29T03:16:12;36.92;35.47;38.12;;
41704;Laerm;861;48.808;9.006;2024-03-29T03:18:39;36.88;35.58;38.15;;
41704;Laerm;861;48.808;9.006;2024-03-29T03:21:06;36.92;35.66;38.24;;
41704;Laerm;861;48.808;9.006;2024-03-29T03:23:32;36.90;35.48;38.06;;
41704;Laerm;861;48.808;9.006;2024-03-29T03:26:03;36.91;35.62;38.13;;
41704;Laerm;861;48.808;9.006;2024-03-29T03:28:32;36.91;35.50;38.36;;
41704;Laerm;861;48.808;9.006;2024-03-29T03:30:59;36.94;35.68;38.30;;
41704;Laerm;861;48.808;9.006;2024-03-29T03:33:25;36.96;35.48;38.88;;
41704;Laerm;861;48.808;9.006;2024-03-29T03:35:52;36.96;35.68;38.59;;
41704;Laerm;861;48.808;9.006;2024-03-29T03:38:19;36.99;35.49;40.65;;
41704;Laerm;861;48.808;9.006;2024-03-29T03:40:45;36.97;35.26;38.24;;
41704;Laerm;861;48.808;9.006;2024-03-29T03:43:12;37.02;35.68;46.07;;
41704;Laerm;861;48.808;9.006;2024-03-29T03:45:41;37.00;35.74;42.75;;
41704;Laerm;861;48.808;9.006;2024-03-29T03:48:10;36.97;35.56;38.30;;
41704;Laerm;861;48.808;9.006;2024-03-29T03:50:40;36.95;35.74;38.28;;
41704;Laerm;861;48.808;9.006;2024-03-29T03:53:08;36.95;35.23;38.39;;
41704;Laerm;861;48.808;9.006;2024-03-29T03:55:38;36.97;35.59;39.27;;
41704;Laerm;861;48.808;9.006;2024-03-29T03:58:05;36.87;35.52;38.21;;
41704;Laerm;861;48.808;9.006;2024-03-29T04:00:31;36.85;35.54;38.34;;
41704;Laerm;861;48.808;9.006;2024-03-29T04:02:58;36.84;35.65;38.09;;
41704;Laerm;861;48.808;9.006;2024-03-29T04:05:24;36.82;35.25;38.09;;
41704;Laerm;861;48.808;9.006;2024-03-29T04:07:52;36.82;35.52;38.13;;
41704;Laerm;861;48.808;9.006;2024-03-29T04:10:19;36.82;35.61;38.09;;
41704;Laerm;861;48.808;9.006;2024-03-29T04:12:46;36.87;35.73;38.41;;
41704;Laerm;861;48.808;9.006;2024-03-29T04:15:12;36.87;35.61;38.14;;
41704;Laerm;861;48.808;9.006;2024-03-29T04:17:39;36.88;35.50;38.35;;
41704;Laerm;861;48.808;9.006;2024-03-29T04:20:06;36.93;35.73;38.25;;
41704;Laerm;861;48.808;9.006;2024-03-29T04:22:32;36.93;35.48;38.27;;
41704;Laerm;861;48.808;9.006;2024-03-29T04:24:59;36.95;35.43;38.04;;
41704;Laerm;861;48.808;9.006;2024-03-29T04:27:27;36.97;35.66;38.26;;
41704;Laerm;861;48.808;9.006;2024-03-29T04:29:55;36.89;35.38;38.02;;
41704;Laerm;861;48.808;9.006;2024-03-29T04:32:23;36.84;35.41;38.04;;
41704;Laerm;861;48.808;9.006;2024-03-29T04:34:50;36.92;35.58;39.36;;
41704;Laerm;861;48.808;9.006;2024-03-29T04:37:18;36.96;35.50;40.24;;
41704;Laerm;861;48.808;9.006;2024-03-29T04:39:46;37.00;35.72;41.41;;
41704;Laerm;861;48.808;9.006;2024-03-29T04:42:13;37.01;35.72;38.20;;
41704;Laerm;861;48.808;9.006;2024-03-29T04:44:41;37.12;35.57;45.61;;
41704;Laerm;861;48.808;9.006;2024-03-29T04:47:08;37.02;35.80;41.72;;
41704;Laerm;861;48.808;9.006;2024-03-29T04:49:36;36.99;35.82;38.30;;
41704;Laerm;861;48.808;9.006;2024-03-29T04:52:05;37.01;35.71;38.18;;
41704;Laerm;861;48.808;9.006;2024-03-29T04:54:33;37.01;35.32;38.17;;
41704;Laerm;861;48.808;9.006;2024-03-29T04:57:02;37.01;35.47;38.24;;
41704;Laerm;861;48.808;9.006;2024-03-29T04:59:30;37.03;35.66;38.36;;
41704;Laerm;861;48.808;9.006;2024-03-29T05:01:58;37.04;35.79;38.19;;
41704;Laerm;861;48.808;9.006;2024-03-29T05:04:25;37.05;35.85;38.22;;
41704;Laerm;861;48.808;9.006;2024-03-29T05:06:59;37.08;35.61;38.50;;
41704;Laerm;861;48.808;9.006;2024-03-29T05:09:26;37.02;35.66;38.47;;
41704;Laerm;861;48.808;9.006;2024-03-29T05:11:53;37.02;35.65;40.15;;
41704;Laerm;861;48.808;9.006;2024-03-29T05:14:22;36.95;35.37;38.23;;
41704;Laerm;861;48.808;9.006;2024-03-29T05:16:49;36.95;35.67;38.26;;
41704;Laerm;861;48.808;9.006;2024-03-29T05:19:16;36.97;35.69;38.18;;
41704;Laerm;861;48.808;9.006;2024-03-29T05:21:43;36.96;35.72;38.38;;
41704;Laerm;861;48.808;9.006;2024-03-29T05:24:10;36.98;35.58;38.27;;
41704;Laerm;861;48.808;9.006;2024-03-29T05:26:37;37.01;35.67;38.29;;
41704;Laerm;861;48.808;9.006;2024-03-29T05:29:03;37.03;35.82;38.25;;
41704;Laerm;861;48.808;9.006;2024-03-29T05:31:31;37.04;35.74;38.24;;
41704;Laerm;861;48.808;9.006;2024-03-29T05:33:57;37.06;35.75;38.82;;
41704;Laerm;861;48.808;9.006;2024-03-29T05:36:26;37.05;35.80;38.31;;
41704;Laerm;861;48.808;9.006;2024-03-29T05:38:53;37.04;35.58;38.32;;
41704;Laerm;861;48.808;9.006;2024-03-29T05:41:21;37.04;35.48;38.34;;
41704;Laerm;861;48.808;9.006;2024-03-29T05:43:48;37.05;35.69;38.28;;
41704;Laerm;861;48.808;9.006;2024-03-29T05:46:17;37.02;35.78;38.32;;
41704;Laerm;861;48.808;9.006;2024-03-29T05:48:44;37.04;35.79;38.31;;
41704;Laerm;861;48.808;9.006;2024-03-29T05:51:11;37.03;35.77;38.31;;
41704;Laerm;861;48.808;9.006;2024-03-29T05:53:37;37.05;35.89;38.45;;
41704;Laerm;861;48.808;9.006;2024-03-29T05:56:06;37.04;35.82;38.34;;
41704;Laerm;861;48.808;9.006;2024-03-29T05:58:37;37.04;35.70;38.40;;
41704;Laerm;861;48.808;9.006;2024-03-29T06:01:03;37.07;35.73;38.55;;
41704;Laerm;861;48.808;9.006;2024-03-29T06:03:30;37.05;35.54;38.21;;
41704;Laerm;861;48.808;9.006;2024-03-29T06:05:57;37.07;35.76;38.37;;
41704;Laerm;861;48.808;9.006;2024-03-29T06:08:23;37.06;35.58;38.33;;
41704;Laerm;861;48.808;9.006;2024-03-29T06:10:52;37.06;35.73;39.38;;
41704;Laerm;861;48.808;9.006;2024-03-29T06:13:19;37.06;35.65;38.97;;
41704;Laerm;861;48.808;9.006;2024-03-29T06:16:14;37.05;35.36;38.24;;
41704;Laerm;861;48.808;9.006;2024-03-29T06:19:00;37.09;35.75;38.97;;
41704;Laerm;861;48.808;9.006;2024-03-29T06:21:27;37.00;35.63;38.07;;
41704;Laerm;861;48.808;9.006;2024-03-29T06:23:53;37.00;35.51;38.29;;
41704;Laerm;861;48.808;9.006;2024-03-29T06:26:20;37.00;35.67;38.46;;
41704;Laerm;861;48.808;9.006;2024-03-29T06:28:47;37.02;35.52;40.13;;
41704;Laerm;861;48.808;9.006;2024-03-29T06:31:13;36.99;35.31;43.37;;
41704;Laerm;861;48.808;9.006;2024-03-29T06:33:40;36.97;35.58;39.57;;
41704;Laerm;861;48.808;9.006;2024-03-29T06:36:07;36.96;35.28;39.38;;
41704;Laerm;861;48.808;9.006;2024-03-29T06:38:33;36.93;35.37;38.43;;
41704;Laerm;861;48.808;9.006;2024-03-29T06:41:00;36.93;35.66;38.37;;
41704;Laerm;861;48.808;9.006;2024-03-29T06:43:26;36.95;35.63;38.97;;
41704;Laerm;861;48.808;9.006;2024-03-29T06:45:53;36.95;35.46;38.28;;
41704;Laerm;861;48.808;9.006;2024-03-29T06:48:19;36.95;35.62;38.15;;
41704;Laerm;861;48.808;9.006;2024-03-29T06:50:46;36.96;35.69;38.20;;
41704;Laerm;861;48.808;9.006;2024-03-29T06:53:12;36.96;35.48;38.15;;
41704;Laerm;861;48.808;9.006;2024-03-29T06:55:39;36.97;35.56;38.26;;
41704;Laerm;861;48.808;9.006;2024-03-29T06:58:05;36.95;35.51;38.24;;
41704;Laerm;861;48.808;9.006;2024-03-29T07:00:32;36.94;35.53;38.21;;
41704;Laerm;861;48.808;9.006;2024-03-29T07:02:59;36.89;35.60;38.24;;
41704;Laerm;861;48.808;9.006;2024-03-29T07:05:25;36.86;35.50;38.39;;
41704;Laerm;861;48.808;9.006;2024-03-29T07:07:52;36.85;35.45;38.20;;
41704;Laerm;861;48.808;9.006;2024-03-29T07:10:20;36.83;35.51;38.23;;
41704;Laerm;861;48.808;9.006;2024-03-29T07:12:46;36.81;35.45;37.94;;
41704;Laerm;861;48.808;9.006;2024-03-29T07:15:13;36.81;35.06;38.14;;
41704;Laerm;861;48.808;9.006;2024-03-29T07:17:39;36.81;35.54;38.04;;
41704;Laerm;861;48.808;9.006;2024-03-29T07:20:07;36.77;35.35;37.98;;
41704;Laerm;861;48.808;9.006;2024-03-29T07:22:34;36.77;35.40;38.34;;
41704;Laerm;861;48.808;9.006;2024-03-29T07:25:01;36.75;35.07;37.89;;
41704;Laerm;861;48.808;9.006;2024-03-29T07:27:28;36.69;35.35;38.22;;
41704;Laerm;861;48.808;9.006;2024-03-29T07:30:01;36.66;34.91;38.63;;
41704;Laerm;861;48.808;9.006;2024-03-29T07:32:30;36.68;35.45;38.16;;
41704;Laerm;861;48.808;9.006;2024-03-29T07:34:57;37.01;35.48;42.19;;
41704;Laerm;861;48.808;9.006;2024-03-29T07:37:25;36.68;35.41;37.78;;
41704;Laerm;861;48.808;9.006;2024-03-29T07:39:52;36.62;35.17;38.22;;
41704;Laerm;861;48.808;9.006;2024-03-29T07:42:18;36.44;35.19;38.59;;
41704;Laerm;861;48.808;9.006;2024-03-29T07:44:45;36.18;34.90;38.29;;
41704;Laerm;861;48.808;9.006;2024-03-29T07:47:13;35.91;34.59;38.70;;
41704;Laerm;861;48.808;9.006;2024-03-29T07:49:41;35.88;34.76;37.01;;
41704;Laerm;861;48.808;9.006;2024-03-29T07:52:08;35.83;34.44;37.08;;
41704;Laerm;861;48.808;9.006;2024-03-29T07:54:36;35.51;34.29;36.76;;
41704;Laerm;861;48.808;9.006;2024-03-29T07:57:02;35.30;33.90;36.55;;
41704;Laerm;861;48.808;9.006;2024-03-29T07:59:29;34.99;33.70;36.35;;
41704;Laerm;861;48.808;9.006;2024-03-29T08:01:56;34.79;33.36;35.92;;
41704;Laerm;861;48.808;9.006;2024-03-29T08:04:24;34.59;33.42;35.90;;
41704;Laerm;861;48.808;9.006;2024-03-29T08:06:53;34.37;33.17;35.55;;
41704;Laerm;861;48.808;9.006;2024-03-29T08:09:20;34.17;32.94;35.35;;
41704;Laerm;861;48.808;9.006;2024-03-29T08:11:47;34.05;32.60;35.28;;
41704;Laerm;861;48.808;9.006;2024-03-29T08:14:13;33.94;32.55;35.14;;
41704;Laerm;861;48.808;9.006;2024-03-29T08:16:40;33.82;32.59;38.35;;
41704;Laerm;861;48.808;9.006;2024-03-29T08:19:06;33.72;32.49;36.28;;
41704;Laerm;861;48.808;9.006;2024-03-29T08:21:33;33.68;32.51;34.80;;
41704;Laerm;861;48.808;9.006;2024-03-29T08:24:00;33.60;32.28;34.80;;
41704;Laerm;861;48.808;9.006;2024-03-29T08:26:29;33.55;32.12;34.60;;
41704;Laerm;861;48.808;9.006;2024-03-29T08:28:56;33.52;32.34;38.66;;
41704;Laerm;861;48.808;9.006;2024-03-29T08:31:23;33.46;31.94;34.63;;
41704;Laerm;861;48.808;9.006;2024-03-29T08:33:50;33.44;32.19;34.78;;
41704;Laerm;861;48.808;9.006;2024-03-29T08:36:18;33.40;32.13;34.57;;
41704;Laerm;861;48.808;9.006;2024-03-29T08:38:45;38.88;31.75;73.71;;
41704;Laerm;861;48.808;9.006;2024-03-29T08:41:13;33.30;31.84;34.40;;
41704;Laerm;861;48.808;9.006;2024-03-29T08:43:40;33.28;31.80;34.62;;
41704;Laerm;861;48.808;9.006;2024-03-29T08:46:06;33.27;32.08;34.44;;
41704;Laerm;861;48.808;9.006;2024-03-29T08:48:35;33.23;31.85;39.84;;
41704;Laerm;861;48.808;9.006;2024-03-29T08:51:04;33.16;32.00;34.41;;
41704;Laerm;861;48.808;9.006;2024-03-29T08:53:31;33.11;31.87;34.32;;
41704;Laerm;861;48.808;9.006;2024-03-29T08:55:57;35.38;31.68;67.81;;
41704;Laerm;861;48.808;9.006;2024-03-29T08:58:24;33.03;31.61;34.27;;
41704;Laerm;861;48.808;9.006;2024-03-29T09:00:56;32.99;31.69;34.33;;
41704;Laerm;861;48.808;9.006;2024-03-29T09:03:24;32.95;31.76;34.24;;
41704;Laerm;861;48.808;9.006;2024-03-29T09:05:52;32.93;31.59;34.06;;
41704;Laerm;861;48.808;9.006;2024-03-29T09:08:19;32.88;31.58;34.07;;
41704;Laerm;861;48.808;9.006;2024-03-29T09:10:46;32.86;31.43;33.98;;
41704;Laerm;861;48.808;9.006;2024-03-29T09:13:14;32.84;31.63;38.62;;
41704;Laerm;861;48.808;9.006;2024-03-29T09:15:40;32.79;31.45;33.94;;
41704;Laerm;861;48.808;9.006;2024-03-29T09:18:08;32.75;31.41;33.92;;
41704;Laerm;861;48.808;9.006;2024-03-29T09:20:44;32.70;31.46;34.11;;
41704;Laerm;861;48.808;9.006;2024-03-29T09:23:12;32.63;31.33;33.75;;
41704;Laerm;861;48.808;9.006;2024-03-29T09:25:43;32.60;31.17;33.96;;
41704;Laerm;861;48.808;9.006;2024-03-29T09:28:10;32.57;31.24;33.62;;
41704;Laerm;861;48.808;9.006;2024-03-29T09:30:37;32.55;31.18;33.60;;
41704;Laerm;861;48.808;9.006;2024-03-29T09:33:06;32.52;31.08;34.23;;
41704;Laerm;861;48.808;9.006;2024-03-29T09:35:37;32.50;31.23;33.64;;
41704;Laerm;861;48.808;9.006;2024-03-29T09:38:04;32.49;31.18;33.75;;
41704;Laerm;861;48.808;9.006;2024-03-29T09:40:32;32.47;31.29;33.59;;
41704;Laerm;861;48.808;9.006;2024-03-29T09:43:02;32.45;31.14;33.57;;
41704;Laerm;861;48.808;9.006;2024-03-29T09:45:38;32.42;31.15;33.64;;
41704;Laerm;861;48.808;9.006;2024-03-29T09:48:08;32.39;31.08;33.52;;
41704;Laerm;861;48.808;9.006;2024-03-29T09:50:37;32.36;31.07;33.43;;
41704;Laerm;861;48.808;9.006;2024-03-29T09:53:06;32.34;31.07;33.51;;
41704;Laerm;861;48.808;9.006;2024-03-29T09:55:36;32.32;30.97;33.66;;
41704;Laerm;861;48.808;9.006;2024-03-29T09:58:05;32.30;31.08;33.51;;
41704;Laerm;861;48.808;9.006;2024-03-29T10:00:32;32.27;31.01;33.36;;
41704;Laerm;861;48.808;9.006;2024-03-29T10:03:01;32.25;30.87;33.36;;
41704;Laerm;861;48.808;9.006;2024-03-29T10:05:28;32.23;30.95;33.50;;
41704;Laerm;861;48.808;9.006;2024-03-29T10:07:57;32.21;31.01;33.63;;
41704;Laerm;861;48.808;9.006;2024-03-29T10:10:33;32.20;30.93;33.27;;
41704;Laerm;861;48.808;9.006;2024-03-29T10:13:00;32.19;30.85;33.34;;
41704;Laerm;861;48.808;9.006;2024-03-29T10:15:31;32.18;30.81;33.41;;
41704;Laerm;861;48.808;9.006;2024-03-29T10:18:00;32.16;31.00;33.39;;
41704;Laerm;861;48.808;9.006;2024-03-29T10:20:27;32.12;30.76;33.54;;
41704;Laerm;861;48.808;9.006;2024-03-29T10:22:55;32.10;30.56;33.40;;
41704;Laerm;861;48.808;9.006;2024-03-29T10:25:24;32.10;30.75;33.24;;
41704;Laerm;861;48.808;9.006;2024-03-29T10:27:50;32.08;30.89;33.25;;
41704;Laerm;861;48.808;9.006;2024-03-29T10:30:20;32.06;30.86;33.30;;
41704;Laerm;861;48.808;9.006;2024-03-29T10:32:47;32.06;30.76;33.21;;
41704;Laerm;861;48.808;9.006;2024-03-29T10:35:14;32.06;30.69;33.30;;
41704;Laerm;861;48.808;9.006;2024-03-29T10:37:43;32.05;30.79;33.26;;
41704;Laerm;861;48.808;9.006;2024-03-29T10:40:12;32.03;30.79;33.29;;
41704;Laerm;861;48.808;9.006;2024-03-29T10:42:45;32.00;30.72;33.12;;
41704;Laerm;861;48.808;9.006;2024-03-29T10:45:15;31.98;30.61;33.10;;
41704;Laerm;861;48.808;9.006;2024-03-29T10:47:45;31.97;30.54;35.45;;
41704;Laerm;861;48.808;9.006;2024-03-29T10:50:19;31.97;30.66;33.12;;
41704;Laerm;861;48.808;9.006;2024-03-29T10:52:48;31.95;30.74;33.14;;
41704;Laerm;861;48.808;9.006;2024-03-29T10:55:15;31.96;30.68;37.17;;
41704;Laerm;861;48.808;9.006;2024-03-29T10:57:43;31.94;30.61;33.30;;
41704;Laerm;861;48.808;9.006;2024-03-29T11:00:16;31.93;30.69;33.06;;
41704;Laerm;861;48.808;9.006;2024-03-29T11:03:49;31.91;30.58;33.37;;
41704;Laerm;861;48.808;9.006;2024-03-29T11:06:26;31.90;30.66;35.14;;
41704;Laerm;861;48.808;9.006;2024-03-29T11:09:00;31.89;30.67;33.16;;
41704;Laerm;861;48.808;9.006;2024-03-29T11:11:29;31.90;30.61;33.13;;
41704;Laerm;861;48.808;9.006;2024-03-29T11:14:20;31.88;30.60;33.26;;
41704;Laerm;861;48.808;9.006;2024-03-29T11:16:51;31.89;30.72;33.15;;
41704;Laerm;861;48.808;9.006;2024-03-29T11:19:22;31.88;30.27;33.01;;
41704;Laerm;861;48.808;9.006;2024-03-29T11:21:50;31.88;30.38;33.09;;
41704;Laerm;861;48.808;9.006;2024-03-29T11:24:27;31.87;30.60;33.04;;
41704;Laerm;861;48.808;9.006;2024-03-29T11:26:55;31.89;30.60;46.86;;
41704;Laerm;861;48.808;9.006;2024-03-29T11:29:24;31.79;30.49;39.48;;
41704;Laerm;861;48.808;9.006;2024-03-29T11:31:58;31.75;30.57;32.99;;
41704;Laerm;861;48.808;9.006;2024-03-29T11:34:25;33.11;30.43;35.84;;
41704;Laerm;861;48.808;9.006;2024-03-29T11:36:52;35.97;33.96;38.68;;
41704;Laerm;861;48.808;9.006;2024-03-29T11:39:23;37.71;36.39;38.99;;
41704;Laerm;861;48.808;9.006;2024-03-29T11:41:51;37.64;36.26;38.98;;
41704;Laerm;861;48.808;9.006;2024-03-29T11:44:21;37.61;36.13;38.81;;
41704;Laerm;861;48.808;9.006;2024-03-29T11:46:50;37.60;36.24;38.82;;
41704;Laerm;861;48.808;9.006;2024-03-29T11:49:17;37.52;36.30;38.76;;
41704;Laerm;861;48.808;9.006;2024-03-29T11:51:44;37.52;36.24;38.60;;
41704;Laerm;861;48.808;9.006;2024-03-29T11:54:11;37.47;36.01;38.87;;
41704;Laerm;861;48.808;9.006;2024-03-29T11:56:37;37.50;36.14;38.77;;
41704;Laerm;861;48.808;9.006;2024-03-29T11:59:05;37.50;36.39;38.59;;
41704;Laerm;861;48.808;9.006;2024-03-29T12:01:33;37.46;36.09;38.61;;
41704;Laerm;861;48.808;9.006;2024-03-29T12:04:02;37.42;36.04;39.01;;
41704;Laerm;861;48.808;9.006;2024-03-29T12:06:29;37.43;35.96;38.66;;
41704;Laerm;861;48.808;9.006;2024-03-29T12:08:56;37.43;36.02;38.80;;
41704;Laerm;861;48.808;9.006;2024-03-29T12:11:23;37.45;36.06;38.80;;
41704;Laerm;861;48.808;9.006;2024-03-29T12:13:52;37.53;36.28;38.96;;
41704;Laerm;861;48.808;9.006;2024-03-29T12:16:19;37.55;36.20;38.88;;
41704;Laerm;861;48.808;9.006;2024-03-29T12:18:48;37.49;36.29;38.70;;
41704;Laerm;861;48.808;9.006;2024-03-29T12:21:15;37.59;36.09;38.83;;
41704;Laerm;861;48.808;9.006;2024-03-29T12:23:48;37.63;36.31;38.87;;
41704;Laerm;861;48.808;9.006;2024-03-29T12:26:17;37.61;36.28;38.88;;
41704;Laerm;861;48.808;9.006;2024-03-29T12:28:49;37.61;36.28;38.68;;
41704;Laerm;861;48.808;9.006;2024-03-29T12:31:16;37.60;36.17;38.90;;
41704;Laerm;861;48.808;9.006;2024-03-29T12:33:52;37.58;36.14;38.99;;
41704;Laerm;861;48.808;9.006;2024-03-29T12:36:23;37.59;36.35;38.75;;
41704;Laerm;861;48.808;9.006;2024-03-29T12:38:49;37.56;36.20;38.68;;
41704;Laerm;861;48.808;9.006;2024-03-29T12:41:19;37.59;36.25;38.83;;
41704;Laerm;861;48.808;9.006;2024-03-29T12:43:46;37.57;36.04;38.89;;
41704;Laerm;861;48.808;9.006;2024-03-29T12:46:13;37.56;35.90;38.90;;
41704;Laerm;861;48.808;9.006;2024-03-29T12:48:39;37.53;36.26;38.77;;
41704;Laerm;861;48.808;9.006;2024-03-29T12:51:07;37.52;36.25;38.75;;
41704;Laerm;861;48.808;9.006;2024-03-29T12:53:38;37.52;36.12;38.70;;
41704;Laerm;861;48.808;9.006;2024-03-29T12:56:05;37.51;36.16;38.93;;
41704;Laerm;861;48.808;9.006;2024-03-29T12:58:31;37.52;36.03;38.83;;
41704;Laerm;861;48.808;9.006;2024-03-29T13:00:58;37.48;36.06;38.67;;
41704;Laerm;861;48.808;9.006;2024-03-29T13:03:25;37.48;36.23;38.71;;
41704;Laerm;861;48.808;9.006;2024-03-29T13:05:52;37.51;36.21;38.68;;
41704;Laerm;861;48.808;9.006;2024-03-29T13:08:19;37.55;36.20;38.81;;
41704;Laerm;861;48.808;9.006;2024-03-29T13:10:46;37.53;35.95;38.78;;
41704;Laerm;861;48.808;9.006;2024-03-29T13:13:13;37.58;36.00;38.99;;
41704;Laerm;861;48.808;9.006;2024-03-29T13:15:40;37.53;36.07;38.71;;
41704;Laerm;861;48.808;9.006;2024-03-29T13:18:09;37.75;36.34;38.92;;
41704;Laerm;861;48.808;9.006;2024-03-29T13:20:38;37.88;36.41;39.17;;
41704;Laerm;861;48.808;9.006;2024-03-29T13:23:10;37.54;36.17;38.81;;
41704;Laerm;861;48.808;9.006;2024-03-29T13:25:37;37.28;35.84;38.50;;
41704;Laerm;861;48.808;9.006;2024-03-29T13:28:04;37.06;35.47;38.30;;
41704;Laerm;861;48.808;9.006;2024-03-29T13:30:31;36.92;35.55;38.17;;
41704;Laerm;861;48.808;9.006;2024-03-29T13:32:57;36.74;35.15;38.03;;
41704;Laerm;861;48.808;9.006;2024-03-29T13:35:24;36.64;34.99;40.72;;
41704;Laerm;861;48.808;9.006;2024-03-29T13:37:52;36.57;35.02;37.82;;
41704;Laerm;861;48.808;9.006;2024-03-29T13:40:24;36.43;35.00;37.90;;
41704;Laerm;861;48.808;9.006;2024-03-29T13:42:51;36.28;34.66;37.62;;
41704;Laerm;861;48.808;9.006;2024-03-29T13:45:18;36.11;34.58;37.64;;
41704;Laerm;861;48.808;9.006;2024-03-29T13:47:46;35.92;34.37;37.13;;
41704;Laerm;861;48.808;9.006;2024-03-29T13:50:14;35.96;34.63;37.26;;
41704;Laerm;861;48.808;9.006;2024-03-29T13:52:43;36.00;34.59;37.42;;
41704;Laerm;861;48.808;9.006;2024-03-29T13:55:11;35.91;34.37;37.26;;
41704;Laerm;861;48.808;9.006;2024-03-29T13:57:38;35.71;34.32;36.94;;
41704;Laerm;861;48.808;9.006;2024-03-29T14:00:06;35.70;34.25;36.94;;
41704;Laerm;861;48.808;9.006;2024-03-29T14:02:33;35.85;34.25;37.00;;
41704;Laerm;861;48.808;9.006;2024-03-29T14:05:01;35.84;34.18;37.13;;
41704;Laerm;861;48.808;9.006;2024-03-29T14:07:28;35.87;34.10;37.38;;
41704;Laerm;861;48.808;9.006;2024-03-29T14:09:55;35.80;34.24;37.15;;
41704;Laerm;861;48.808;9.006;2024-03-29T14:12:21;35.83;34.34;37.13;;
41704;Laerm;861;48.808;9.006;2024-03-29T14:14:51;35.79;33.96;37.13;;